Time;durP1;ratioP1;P1;durP2;ratioP2;P2;SDS_P1;SDS_P2;PMS_P1;PMS_P2;Temp;Humidity;BMP_temperature;BMP_pressure;BME280_temperature;BME280_humidity;BME280_pressure;Samples;Min_cycle;Max_cycle;Signal;HPM_P1;HPM_P2
2023/02/24 00:01:23;;;;;;;21.08;3.38;;;;;;;5.04;100.00;101227.34;4967313;28;20083;-83
2023/02/24 00:03:55;;;;;;;24.02;4.38;;;;;;;5.03;100.00;101228.31;4985409;28;20034;-82
2023/02/24 00:06:22;;;;;;;30.35;4.32;;;;;;;5.03;100.00;101223.97;4976493;28;20041;-82
2023/02/24 00:08:47;;;;;;;19.75;4.25;;;;;;;5.17;100.00;101228.13;4970626;28;20031;-82
2023/02/24 00:11:15;;;;;;;32.60;4.88;;;;;;;5.12;100.00;101225.03;4958741;28;20042;-82
2023/02/24 00:13:47;;;;;;;26.20;2.88;;;;;;;5.06;100.00;101222.91;4969718;28;20026;-82
2023/02/24 00:16:16;;;;;;;27.00;3.75;;;;;;;5.09;100.00;101225.28;4944973;28;20127;-83
2023/02/24 00:18:45;;;;;;;24.35;4.18;;;;;;;5.10;100.00;101224.34;4957390;28;20038;-82
2023/02/24 00:21:14;;;;;;;29.85;4.40;;;;;;;5.05;100.00;101214.41;4973997;28;20041;-81
2023/02/24 00:23:47;;;;;;;26.85;3.83;;;;;;;4.94;100.00;101216.91;4973306;28;20038;-81
2023/02/24 00:26:13;;;;;;;;;;;;;;;4.98;100.00;101214.94;4958337;28;20046;-81
2023/02/24 00:28:39;;;;;;;36.03;3.95;;;;;;;4.99;100.00;101207.13;4956793;28;20005;-81
2023/02/24 00:31:14;;;;;;;23.60;4.10;;;;;;;4.87;100.00;101216.50;4977895;28;20147;-81
2023/02/24 00:33:41;;;;;;;25.15;3.58;;;;;;;4.86;100.00;101198.66;4974884;28;20036;-82
2023/02/24 00:36:23;;;;;;;25.67;4.07;;;;;;;4.78;100.00;101188.91;4986953;28;20523;-82
2023/02/24 00:38:56;;;;;;;28.48;3.28;;;;;;;4.77;100.00;101189.03;4950778;28;20117;-82
2023/02/24 00:41:31;;;;;;;31.10;3.22;;;;;;;4.80;100.00;101189.63;4957418;28;20039;-81
2023/02/24 00:44:05;;;;;;;26.75;3.00;;;;;;;4.71;100.00;101180.00;4966926;28;20584;-81
2023/02/24 00:46:39;;;;;;;19.88;3.90;;;;;;;4.62;100.00;101178.09;4966759;28;20038;-81
2023/02/24 00:49:09;;;;;;;32.67;4.47;;;;;;;4.62;100.00;101178.91;4965747;28;20043;-81
2023/02/24 00:51:39;;;;;;;25.50;3.75;;;;;;;4.64;100.00;101178.78;4953791;28;20053;-81
2023/02/24 00:54:04;;;;;;;19.45;3.25;;;;;;;4.54;100.00;101173.47;4983251;28;20042;-82
2023/02/24 00:56:32;;;;;;;26.33;3.25;;;;;;;4.52;100.00;101179.63;4963535;28;20031;-82
2023/02/24 00:58:59;;;;;;;20.95;2.95;;;;;;;4.55;100.00;101182.00;4968796;28;20030;-82
2023/02/24 01:01:30;;;;;;;19.50;3.65;;;;;;;4.69;100.00;101179.28;4970604;28;20041;-82
2023/02/24 01:04:04;;;;;;;27.60;4.75;;;;;;;4.67;100.00;101168.28;4971301;28;20031;-82
2023/02/24 01:06:32;;;;;;;24.35;3.15;;;;;;;4.67;100.00;101169.13;4957233;28;20512;-82
2023/02/24 01:08:59;;;;;;;25.02;3.78;;;;;;;4.57;100.00;101168.13;4982817;28;20058;-81
2023/02/24 01:14:19;;;;;;;22.52;3.78;;;;;;;4.43;100.00;101166.53;4985793;28;20029;-82
2023/02/24 01:16:49;;;;;;;34.83;3.58;;;;;;;4.35;100.00;101166.25;4967927;28;20489;-82
2023/02/24 01:19:30;;;;;;;21.00;3.72;;;;;;;4.36;100.00;101161.91;4980912;28;20034;-82
2023/02/24 01:22:01;;;;;;;33.67;4.00;;;;;;;4.34;100.00;101159.47;4969376;28;20030;-82
2023/02/24 01:24:29;;;;;;;34.75;4.07;;;;;;;4.29;100.00;101156.38;4966107;28;20093;-82
2023/02/24 01:26:56;;;;;;;23.20;3.70;;;;;;;4.25;100.00;101155.78;4980707;28;20164;-82
2023/02/24 01:29:22;;;;;;;23.42;3.60;;;;;;;4.22;100.00;101153.44;4952940;28;20507;-82
2023/02/24 01:31:49;;;;;;;26.17;4.35;;;;;;;4.24;100.00;101153.34;4966156;28;20141;-81
2023/02/24 01:34:17;;;;;;;31.58;3.63;;;;;;;4.29;100.00;101161.50;4967286;28;20027;-82
2023/02/24 01:36:43;;;;;;;15.23;2.95;;;;;;;4.29;100.00;101154.66;4954755;28;20497;-82
2023/02/24 01:39:12;;;;;;;35.20;4.10;;;;;;;4.32;100.00;101155.38;4986681;28;20121;-82
2023/02/24 01:41:43;;;;;;;34.67;5.57;;;;;;;4.27;100.00;101150.53;4975418;28;20062;-81
2023/02/24 01:44:13;;;;;;;29.30;4.32;;;;;;;4.22;100.00;101150.03;4986273;28;20034;-82
2023/02/24 01:46:41;;;;;;;23.15;3.38;;;;;;;4.15;100.00;101141.94;4970224;28;20505;-81
2023/02/24 01:49:45;;;;;;;26.33;3.75;;;;;;;4.14;100.00;101134.34;4983832;28;20066;-81
2023/02/24 01:52:22;;;;;;;37.83;4.13;;;;;;;4.18;100.00;101135.75;4934696;29;20039;-82
2023/02/24 01:54:59;;;;;;;26.55;4.45;;;;;;;4.14;100.00;101134.34;4955789;28;20509;-82
2023/02/24 01:57:30;;;;;;;22.42;3.28;;;;;;;4.05;100.00;101133.22;4953955;28;20046;-80
2023/02/24 02:00:08;;;;;;;25.10;3.33;;;;;;;4.10;100.00;101133.72;4989186;28;20042;-82
2023/02/24 02:02:42;;;;;;;33.10;4.65;;;;;;;4.03;100.00;101132.50;4972329;28;20042;-82
2023/02/24 02:05:08;;;;;;;36.63;4.28;;;;;;;3.88;100.00;101131.81;4971332;28;20046;-82
2023/02/24 02:07:37;;;;;;;44.63;6.43;;;;;;;3.83;100.00;101132.13;4972501;28;20052;-82
2023/02/24 02:10:05;;;;;;;27.92;4.00;;;;;;;3.79;100.00;101117.88;4973325;28;20091;-81
2023/02/24 02:12:35;;;;;;;26.20;5.05;;;;;;;3.74;100.00;101125.06;4971227;28;20023;-81
2023/02/24 02:15:02;;;;;;;28.42;3.88;;;;;;;3.90;100.00;101127.41;4969662;28;20019;-81
2023/02/24 02:17:54;;;;;;;23.77;5.78;;;;;;;3.87;100.00;101115.59;4985917;28;20043;-80
2023/02/24 02:20:36;;;;;;;19.48;4.53;;;;;;;3.88;100.00;101111.28;4983320;28;20039;-82
2023/02/24 02:23:39;;;;;;;28.17;4.75;;;;;;;3.85;100.00;101103.81;4986839;28;20052;-81
2023/02/24 02:26:21;;;;;;;33.37;5.20;;;;;;;3.83;100.00;101095.41;4973031;28;20042;-81
2023/02/24 02:29:02;;;;;;;41.17;6.38;;;;;;;3.87;100.00;101092.50;4969699;28;20572;-81
2023/02/24 02:32:05;;;;;;;27.98;4.93;;;;;;;3.83;100.00;101082.56;4982874;28;20168;-82
2023/02/24 02:34:46;;;;;;;30.50;4.60;;;;;;;3.80;100.00;101069.94;4977782;28;20027;-81
2023/02/24 02:37:23;;;;;;;32.88;4.82;;;;;;;3.89;100.00;101074.44;4966156;28;20038;-82
2023/02/24 02:40:20;;;;;;;23.60;5.30;;;;;;;3.84;100.00;101072.22;4968090;28;20385;-82
2023/02/24 02:42:58;;;;;;;28.77;4.57;;;;;;;3.87;100.00;101060.91;4986530;28;20051;-81
2023/02/24 02:45:33;;;;;;;21.25;3.42;;;;;;;3.77;100.00;101062.44;4985309;28;20039;-81
2023/02/24 02:48:19;;;;;;;20.80;4.60;;;;;;;3.70;100.00;101062.06;4965984;28;20126;-82
2023/02/24 02:51:03;;;;;;;28.35;3.92;;;;;;;3.76;100.00;101053.13;4956356;28;20038;-81
2023/02/24 02:54:06;;;;;;;23.27;4.10;;;;;;;3.78;100.00;101049.53;4969018;28;20031;-81
2023/02/24 02:56:47;;;;;;;25.75;5.63;;;;;;;3.77;100.00;101045.34;4967396;28;20042;-81
2023/02/24 02:59:21;;;;;;;21.48;3.05;;;;;;;3.73;100.00;101045.63;4972073;28;20027;-82
2023/02/24 03:01:48;;;;;;;;;;;;;;;3.70;100.00;101039.78;4975104;28;20069;-81
2023/02/24 03:04:21;;;;;;;28.73;5.13;;;;;;;3.67;100.00;101045.16;4972072;28;19918;-82
2023/02/24 03:06:59;;;;;;;30.85;5.55;;;;;;;3.70;100.00;101034.66;4973902;28;20045;-81
2023/02/24 03:09:29;;;;;;;28.55;4.65;;;;;;;3.71;100.00;101035.47;4980366;28;20047;-82
2023/02/24 03:12:01;;;;;;;22.08;4.22;;;;;;;3.68;100.00;101033.13;4987708;28;20035;-82
2023/02/24 03:14:33;;;;;;;31.25;4.15;;;;;;;3.65;100.00;101031.59;4972519;28;20026;-81
2023/02/24 03:17:03;;;;;;;21.40;3.45;;;;;;;3.64;100.00;101027.41;4978435;28;20472;-81
2023/02/24 03:19:36;;;;;;;19.08;3.70;;;;;;;3.61;100.00;101021.66;4971551;28;20030;-82
2023/02/24 03:22:38;;;;;;;21.33;3.42;;;;;;;3.60;100.00;101031.09;4971306;28;20041;-81
2023/02/24 03:25:06;;;;;;;29.42;5.15;;;;;;;3.59;100.00;101028.63;4969344;28;20045;-81
2023/02/24 03:27:49;;;;;;;20.10;3.40;;;;;;;3.59;100.00;101032.00;4989106;28;20320;-82
2023/02/24 03:30:31;;;;;;;19.83;4.20;;;;;;;3.59;100.00;101028.63;4971574;28;20118;-82
2023/02/24 03:33:04;;;;;;;28.55;4.22;;;;;;;3.58;100.00;101026.97;4989787;28;20074;-82
2023/02/24 03:35:37;;;;;;;31.27;5.22;;;;;;;3.55;100.00;101015.19;4961930;28;20035;-82
2023/02/24 03:38:05;;;;;;;22.80;4.30;;;;;;;3.54;100.00;101013.53;4971523;28;20041;-82
2023/02/24 03:40:34;;;;;;;21.10;4.63;;;;;;;3.55;100.00;101017.75;4969292;28;20035;-82
2023/02/24 03:43:16;;;;;;;31.23;3.78;;;;;;;3.55;100.00;101012.63;4971479;28;20054;-82
2023/02/24 03:45:43;;;;;;;19.75;3.40;;;;;;;3.56;100.00;101011.72;4964753;28;20066;-81
2023/02/24 03:48:10;;;;;;;30.20;3.47;;;;;;;3.55;100.00;101010.06;4965077;28;20467;-81
2023/02/24 03:50:38;;;;;;;17.13;2.92;;;;;;;3.54;100.00;101017.88;4970028;28;20113;-81
2023/02/24 03:53:15;;;;;;;23.48;3.97;;;;;;;3.52;100.00;101012.84;4960544;28;20034;-82
2023/02/24 03:56:12;;;;;;;31.45;5.38;;;;;;;3.52;100.00;101005.13;4958364;28;20042;-82
2023/02/24 03:59:11;;;;;;;25.02;3.70;;;;;;;3.53;100.00;101004.22;4964375;28;20039;-82
2023/02/24 04:02:07;;;;;;;17.33;3.33;;;;;;;3.56;100.00;101011.72;4970062;28;20082;-81
2023/02/24 04:05:08;;;;;;;26.13;3.70;;;;;;;3.53;100.00;101004.22;4985834;28;20038;-81
2023/02/24 04:08:02;;;;;;;27.77;4.25;;;;;;;3.51;100.00;100991.50;4955018;28;20046;-80
2023/02/24 04:10:53;;;;;;;14.65;3.00;;;;;;;3.50;100.00;100996.75;4969857;28;20051;-81
2023/02/24 04:13:45;;;;;;;15.93;4.28;;;;;;;3.51;100.00;101000.94;4970275;28;20031;-82
2023/02/24 04:16:35;;;;;;;21.13;3.55;;;;;;;3.53;100.00;100988.84;4969252;28;20109;-81
2023/02/24 04:19:12;;;;;;;18.85;3.13;;;;;;;3.54;100.00;100989.66;4970352;28;20027;-81
2023/02/24 04:21:41;;;;;;;18.85;4.28;;;;;;;3.52;100.00;100989.75;4952256;28;20034;-81
2023/02/24 04:24:14;;;;;;;26.67;3.50;;;;;;;3.52;100.00;100987.19;4964701;28;20030;-82
2023/02/24 04:26:46;;;;;;;12.87;3.03;;;;;;;3.53;100.00;100986.28;4972513;28;20035;-82
2023/02/24 04:29:21;;;;;;;21.05;2.80;;;;;;;3.50;100.00;100981.34;4969189;28;20481;-82
2023/02/24 04:31:52;;;;;;;21.58;2.90;;;;;;;3.51;100.00;100977.88;4967493;28;20043;-81
2023/02/24 04:34:18;;;;;;;24.67;4.63;;;;;;;3.54;100.00;100977.66;4971031;28;20085;-81
2023/02/24 04:36:48;;;;;;;26.65;5.78;;;;;;;3.53;100.00;100973.47;4968823;28;20038;-81
2023/02/24 04:39:18;;;;;;;28.17;5.82;;;;;;;3.49;100.00;100972.03;4990069;28;20451;-81
2023/02/24 04:41:50;;;;;;;28.60;4.82;;;;;;;3.46;100.00;100970.47;4965942;28;20165;-81
2023/02/24 04:44:17;;;;;;;17.25;4.80;;;;;;;3.46;100.00;100967.09;4955666;28;20092;-81
2023/02/24 04:46:44;;;;;;;21.38;4.03;;;;;;;3.48;100.00;100972.94;4972962;28;20039;-82
2023/02/24 04:49:10;;;;;;;20.88;4.18;;;;;;;3.47;100.00;100967.00;4956179;28;20031;-82
2023/02/24 04:51:41;;;;;;;28.80;4.03;;;;;;;3.49;100.00;100964.34;4968939;28;20073;-82
2023/02/24 04:54:08;;;;;;;21.45;4.15;;;;;;;3.49;100.00;100961.78;4969852;28;20073;-82
2023/02/24 04:56:35;;;;;;;23.77;4.18;;;;;;;3.46;100.00;100952.53;4972006;28;20041;-82
2023/02/24 04:59:01;;;;;;;20.60;4.43;;;;;;;3.47;100.00;100950.81;4973989;28;20039;-81
2023/02/24 05:01:27;;;;;;;20.38;4.20;;;;;;;3.46;100.00;100954.28;4974569;28;20050;-80
2023/02/24 05:03:53;;;;;;;14.38;4.05;;;;;;;3.43;100.00;100947.63;4969004;28;20038;-82
2023/02/24 05:06:19;;;;;;;19.65;4.38;;;;;;;3.41;100.00;100946.94;4973243;28;20129;-81
2023/02/24 05:08:44;;;;;;;27.38;5.30;;;;;;;3.44;100.00;100953.56;4986355;28;20508;-82
2023/02/24 05:11:14;;;;;;;26.08;4.20;;;;;;;3.43;100.00;100942.50;4966879;28;20452;-82
2023/02/24 05:13:44;;;;;;;12.15;3.75;;;;;;;3.42;100.00;100937.47;4992006;28;20744;-82
2023/02/24 05:16:12;;;;;;;25.98;5.03;;;;;;;3.41;100.00;100931.53;4967751;28;20051;-81
2023/02/24 05:18:39;;;;;;;16.73;4.70;;;;;;;3.41;100.00;100936.69;4961151;28;20481;-82
2023/02/24 05:24:06;;;;;;;24.35;4.70;;;;;;;3.45;100.00;100930.41;4975722;28;20043;-81
2023/02/24 05:26:36;;;;;;;36.07;6.30;;;;;;;3.52;100.00;100923.09;4979683;28;20043;-81
2023/02/24 05:29:03;;;;;;;23.45;5.30;;;;;;;3.46;100.00;100928.66;4974331;28;20039;-81
2023/02/24 05:31:29;;;;;;;18.98;4.70;;;;;;;3.40;100.00;100931.66;4964498;28;20034;-81
2023/02/24 05:34:01;;;;;;;23.67;5.60;;;;;;;3.37;100.00;100925.00;4974643;28;20121;-81
2023/02/24 05:36:30;;;;;;;34.58;5.13;;;;;;;3.41;100.00;100926.41;4972632;28;20045;-81
2023/02/24 05:38:57;;;;;;;32.55;5.15;;;;;;;3.47;100.00;100927.75;4958112;28;20031;-81
2023/02/24 05:41:31;;;;;;;18.35;5.43;;;;;;;3.38;100.00;100913.00;4969843;28;20413;-81
2023/02/24 05:43:57;;;;;;;31.08;5.18;;;;;;;3.35;100.00;100920.88;4969480;28;20177;-82
2023/02/24 05:46:28;;;;;;;23.92;5.32;;;;;;;3.35;100.00;100913.19;4972387;28;20047;-81
2023/02/24 05:48:57;;;;;;;24.42;4.57;;;;;;;3.33;100.00;100920.19;4993923;28;20038;-82
2023/02/24 05:51:35;;;;;;;22.73;4.93;;;;;;;3.28;100.00;100912.81;4977992;28;20057;-82
2023/02/24 05:54:03;;;;;;;20.52;4.63;;;;;;;3.28;100.00;100911.06;4991519;28;20026;-81
2023/02/24 05:56:34;;;;;;;26.65;6.35;;;;;;;3.31;100.00;100905.75;4986085;28;20047;-81
2023/02/24 05:59:02;;;;;;;22.92;4.97;;;;;;;3.29;100.00;100901.63;4975704;28;20062;-81
2023/02/24 06:01:30;;;;;;;20.98;4.68;;;;;;;3.27;100.00;100893.22;4959138;28;20051;-82
2023/02/24 06:04:04;;;;;;;30.92;7.10;;;;;;;3.33;100.00;100895.34;4977442;28;20042;-82
2023/02/24 06:06:35;;;;;;;37.45;10.90;;;;;;;3.32;100.00;100891.16;4956174;28;20045;-81
2023/02/24 06:09:11;;;;;;;32.58;9.82;;;;;;;3.34;100.00;100883.38;4973905;28;20033;-82
2023/02/24 06:11:39;;;;;;;31.35;6.15;;;;;;;3.35;100.00;100888.38;4974786;28;20122;-82
2023/02/24 06:14:06;;;;;;;17.60;4.10;;;;;;;3.31;100.00;100879.25;4987983;28;20045;-82
2023/02/24 06:16:36;;;;;;;20.23;4.30;;;;;;;3.29;100.00;100876.78;4972174;28;20039;-82
2023/02/24 06:19:03;;;;;;;25.92;5.47;;;;;;;3.30;100.00;100869.94;4990310;28;20135;-82
2023/02/24 06:21:29;;;;;;;26.70;5.03;;;;;;;3.29;100.00;100870.88;4972070;28;20039;-81
2023/02/24 06:23:59;;;;;;;20.70;5.78;;;;;;;3.28;100.00;100857.25;4972344;28;20045;-82
2023/02/24 06:26:28;;;;;;;23.50;4.45;;;;;;;3.38;100.00;100865.09;4976632;28;20053;-81
2023/02/24 06:28:57;;;;;;;23.90;8.73;;;;;;;3.36;100.00;100864.38;4972350;28;20027;-81
2023/02/24 06:31:23;;;;;;;39.42;12.05;;;;;;;3.30;100.00;100863.06;4985351;28;20101;-82
2023/02/24 06:33:49;;;;;;;27.27;10.05;;;;;;;3.31;100.00;100851.06;4955545;28;20494;-82
2023/02/24 06:36:15;;;;;;;34.47;7.15;;;;;;;3.29;100.00;100855.47;4982507;28;20046;-81
2023/02/24 06:38:41;;;;;;;20.50;5.60;;;;;;;3.29;100.00;100855.47;4978489;28;20034;-81
2023/02/24 06:41:09;;;;;;;26.67;7.32;;;;;;;3.30;100.00;100857.13;4968129;28;20054;-82
2023/02/24 06:43:39;;;;;;;25.58;6.68;;;;;;;3.31;100.00;100862.16;4974650;28;20450;-82
2023/02/24 06:46:10;;;;;;;22.85;4.68;;;;;;;3.30;100.00;100868.19;4975862;28;20073;-82
2023/02/24 06:48:36;;;;;;;27.15;4.05;;;;;;;3.34;100.00;100855.19;4979797;28;20031;-81
2023/02/24 06:51:14;;;;;;;24.15;4.25;;;;;;;3.36;100.00;100858.44;4971887;28;20060;-81
2023/02/24 06:53:43;;;;;;;17.50;3.70;;;;;;;3.32;100.00;100850.16;4993025;28;20034;-82
2023/02/24 06:56:14;;;;;;;17.77;4.38;;;;;;;3.33;100.00;100850.97;4974346;28;20035;-82
2023/02/24 06:58:45;;;;;;;22.20;4.53;;;;;;;3.31;100.00;100848.50;4972226;28;20038;-81
2023/02/24 07:01:12;;;;;;;20.67;3.72;;;;;;;3.42;100.00;100851.13;4971930;28;20044;-82
2023/02/24 07:03:38;;;;;;;14.32;3.92;;;;;;;3.34;100.00;100832.91;4985558;28;20561;-82
2023/02/24 07:06:22;;;;;;;16.33;2.95;;;;;;;3.37;100.00;100837.00;4991052;28;20049;-82
2023/02/24 07:08:50;;;;;;;16.45;5.03;;;;;;;3.33;100.00;100838.97;4977767;28;20034;-82
2023/02/24 07:11:17;;;;;;;15.25;4.18;;;;;;;3.39;99.75;100840.28;4983927;28;20050;-82
2023/02/24 07:13:46;;;;;;;24.00;4.40;;;;;;;3.41;98.38;100830.72;4973782;28;20038;-81
2023/02/24 07:16:14;;;;;;;16.90;3.83;;;;;;;3.38;98.17;100836.09;4975869;28;20039;-82
2023/02/24 07:18:41;;;;;;;18.33;3.05;;;;;;;3.35;98.90;100838.84;4972360;28;20045;-82
2023/02/24 07:21:12;;;;;;;18.98;4.03;;;;;;;3.40;99.12;100840.16;4959400;28;20085;-82
2023/02/24 07:23:40;;;;;;;10.75;3.55;;;;;;;3.36;99.15;100843.88;4972573;28;20110;-81
2023/02/24 07:26:10;;;;;;;20.20;4.35;;;;;;;3.36;99.63;100833.63;4976134;28;20045;-81
2023/02/24 07:28:40;;;;;;;19.95;5.35;;;;;;;3.36;100.00;100838.75;4988525;28;20125;-82
2023/02/24 07:31:15;;;;;;;21.77;3.90;;;;;;;3.39;100.00;100833.41;4972149;28;20433;-80
2023/02/24 07:33:44;;;;;;;21.92;4.65;;;;;;;3.39;100.00;100824.88;4988041;28;20062;-82
2023/02/24 07:36:13;;;;;;;21.60;3.88;;;;;;;3.43;99.87;100823.78;4971393;28;20042;-81
2023/02/24 07:38:43;;;;;;;14.10;4.13;;;;;;;3.46;99.78;100821.78;4974705;28;20072;-80
2023/02/24 07:41:11;;;;;;;24.55;3.92;;;;;;;3.42;99.07;100804.97;4973843;28;20049;-85
2023/02/24 07:43:38;;;;;;;34.00;5.47;;;;;;;3.54;98.36;100803.28;4973273;28;20097;-83
2023/02/24 07:46:15;;;;;;;14.65;3.28;;;;;;;3.53;99.19;100796.53;4975983;28;20089;-81
2023/02/24 07:48:41;;;;;;;20.10;4.95;;;;;;;3.53;99.25;100799.09;4987567;28;20040;-81
2023/02/24 07:51:09;;;;;;;18.40;3.63;;;;;;;3.57;99.71;100790.25;4972153;28;20117;-82
2023/02/24 07:53:35;;;;;;;16.48;3.28;;;;;;;3.61;98.50;100791.66;4953538;28;20536;-82
2023/02/24 07:56:16;;;;;;;18.35;4.70;;;;;;;3.50;98.67;100782.19;4956573;28;20560;-82
2023/02/24 07:58:52;;;;;;;15.02;3.53;;;;;;;3.67;97.38;100785.25;4969933;28;20447;-82
2023/02/24 08:01:26;;;;;;;18.33;3.95;;;;;;;3.75;96.27;100793.25;4960283;28;20039;-82
2023/02/24 08:03:59;;;;;;;18.70;5.03;;;;;;;3.83;95.94;100778.09;4970055;28;20031;-81
2023/02/24 08:06:36;;;;;;;12.77;3.38;;;;;;;3.78;94.96;100781.94;4973509;28;20145;-82
2023/02/24 08:09:16;;;;;;;21.63;3.65;;;;;;;3.84;95.03;100773.78;4972436;28;20097;-81
2023/02/24 08:11:44;;;;;;;15.90;3.55;;;;;;;3.92;93.59;100786.88;4990242;28;20069;-83
2023/02/24 08:14:13;;;;;;;17.45;3.72;;;;;;;3.84;93.96;100776.34;4975252;28;20082;-81
2023/02/24 08:16:44;;;;;;;14.00;3.22;;;;;;;3.89;94.23;100777.63;4980356;28;20044;-84
2023/02/24 08:19:19;;;;;;;19.45;4.60;;;;;;;3.84;94.63;100776.34;4981955;28;21839;-81
2023/02/24 08:21:49;;;;;;;13.65;4.22;;;;;;;3.85;95.43;100765.16;4967871;28;20122;-82
2023/02/24 08:24:23;;;;;;;21.15;3.70;;;;;;;3.93;94.48;100764.59;4985653;28;20027;-82
2023/02/24 08:27:06;;;;;;;29.90;5.13;;;;;;;3.93;94.09;100751.75;4970633;28;20494;-81
2023/02/24 08:29:38;;;;;;;;;;;;;;;3.95;93.19;100755.84;4971207;28;20035;-84
2023/02/24 08:32:10;;;;;;;25.75;3.75;;;;;;;3.95;93.42;100750.72;4978989;28;20008;-82
2023/02/24 08:34:36;;;;;;;20.05;4.18;;;;;;;3.94;93.86;100743.97;4988338;28;20033;-83
2023/02/24 08:37:01;;;;;;;16.17;3.65;;;;;;;3.95;93.72;100732.75;4975498;28;20047;-81
2023/02/24 08:39:29;;;;;;;17.25;3.97;;;;;;;3.92;93.49;100734.72;4972688;28;20130;-81
2023/02/24 08:41:57;;;;;;;16.33;3.38;;;;;;;3.93;92.43;100726.91;4968727;28;20118;-81
2023/02/24 08:44:25;;;;;;;20.80;3.45;;;;;;;4.01;91.31;100724.63;4951453;28;20037;-81
2023/02/24 08:46:52;;;;;;;21.50;3.00;;;;;;;4.00;90.88;100722.97;4970333;28;20130;-82
2023/02/24 08:49:27;;;;;;;17.85;3.80;;;;;;;4.18;89.91;100722.50;4980674;28;20133;-81
2023/02/24 08:51:52;;;;;;;17.05;3.83;;;;;;;4.17;89.78;100724.25;4955931;28;20049;-83
2023/02/24 08:54:25;;;;;;;17.70;2.60;;;;;;;4.20;89.75;100721.47;4954732;28;20031;-81
2023/02/24 08:56:54;;;;;;;15.77;3.65;;;;;;;4.24;89.65;100714.34;4987420;28;20183;-81
2023/02/24 08:59:36;;;;;;;8.25;3.60;;;;;;;4.22;90.04;100705.94;4970448;28;20638;-81
2023/02/24 09:02:18;;;;;;;12.52;2.70;;;;;;;4.27;89.29;100691.00;4974274;28;20101;-82
2023/02/24 09:04:50;;;;;;;16.63;2.83;;;;;;;4.38;87.42;100696.13;4972711;28;20031;-82
2023/02/24 09:07:41;;;;;;;21.05;3.40;;;;;;;4.38;87.27;100688.44;4973215;28;20043;-82
2023/02/24 09:10:18;;;;;;;14.90;4.53;;;;;;;4.46;86.55;100688.66;4950085;28;20070;-85
2023/02/24 09:12:44;;;;;;;16.15;3.22;;;;;;;4.53;85.60;100691.56;4973375;28;20031;-84
2023/02/24 09:15:14;;;;;;;18.23;3.72;;;;;;;4.45;84.77;100686.22;4981555;28;20092;-83
2023/02/24 09:23:03;;;;;;;18.38;3.88;;;;;;;4.44;83.45;100680.25;4984494;28;20070;-82
2023/02/24 09:25:40;;;;;;;17.70;2.80;;;;;;;4.60;84.69;100681.66;4950106;28;20481;-83
2023/02/24 09:28:15;;;;;;;17.55;3.65;;;;;;;4.63;83.29;100682.22;4969878;28;20042;-82
2023/02/24 09:30:52;;;;;;;15.40;3.17;;;;;;;4.65;82.90;100667.50;4968532;28;20043;-81
2023/02/24 09:33:21;;;;;;;22.25;5.22;;;;;;;4.58;82.65;100671.47;4971529;28;20039;-82
2023/02/24 09:35:51;;;;;;;16.10;2.88;;;;;;;4.61;82.43;100668.66;4969296;28;20046;-82
2023/02/24 09:38:19;;;;;;;15.95;3.95;;;;;;;4.56;83.12;100667.38;4991983;28;20103;-82
2023/02/24 09:40:47;;;;;;;17.02;5.30;;;;;;;4.61;83.27;100668.66;4971795;28;20390;-83
2023/02/24 09:43:22;;;;;;;21.02;3.40;;;;;;;4.69;82.33;100662.94;4976322;28;20031;-81
2023/02/24 09:46:13;;;;;;;10.68;3.10;;;;;;;4.62;82.33;100657.47;4987282;28;20090;-81
2023/02/24 09:48:46;;;;;;;16.83;3.25;;;;;;;4.53;83.35;100654.81;4977174;28;20407;-82
2023/02/24 09:51:20;;;;;;;18.40;3.65;;;;;;;4.63;83.16;100648.84;4961947;28;20045;-81
2023/02/24 09:53:51;;;;;;;18.90;3.70;;;;;;;4.73;82.99;100642.94;4985956;28;20026;-82
2023/02/24 09:56:28;;;;;;;32.42;5.22;;;;;;;4.64;83.44;100629.91;4970583;28;20039;-80
2023/02/24 09:59:09;;;;;;;18.70;3.83;;;;;;;4.58;84.89;100622.69;4974702;28;20516;-81
2023/02/24 10:01:46;;;;;;;19.13;4.50;;;;;;;4.78;83.37;100627.97;4957931;28;20580;-82
2023/02/24 10:04:47;;;;;;;14.15;3.80;;;;;;;4.74;83.46;100629.97;4988928;28;20043;-82
2023/02/24 10:07:18;;;;;;;19.33;3.85;;;;;;;4.70;82.32;100625.22;4967078;28;20046;-82
2023/02/24 10:10:18;;;;;;;26.02;3.78;;;;;;;4.68;82.51;100617.63;4976425;28;20034;-82
2023/02/24 10:12:48;;;;;;;12.75;3.25;;;;;;;4.82;83.29;100616.53;4972482;28;20113;-81
2023/02/24 10:15:19;;;;;;;29.25;4.72;;;;;;;4.75;83.49;100616.22;4960647;28;20027;-82
2023/02/24 10:17:54;;;;;;;13.70;4.80;;;;;;;4.68;83.42;100612.50;4974664;28;20769;-78
2023/02/24 10:20:38;;;;;;;19.27;4.80;;;;;;;4.71;83.55;100599.41;4971427;28;20047;-84
2023/02/24 10:23:32;;;;;;;19.48;3.65;;;;;;;4.76;82.36;100599.84;4976855;28;20049;-80
2023/02/24 10:26:29;;;;;;;19.20;3.30;;;;;;;4.73;82.58;100600.09;4969575;28;20078;-82
2023/02/24 10:29:17;;;;;;;19.90;4.38;;;;;;;4.72;82.64;100593.31;4989324;28;20042;-81
2023/02/24 10:31:56;;;;;;;20.58;3.45;;;;;;;4.80;81.30;100585.84;4993470;28;20054;-81
2023/02/24 10:34:30;;;;;;;16.00;2.88;;;;;;;4.84;81.44;100579.50;4972933;28;20036;-81
2023/02/24 10:37:18;;;;;;;14.23;2.92;;;;;;;4.68;81.35;100585.03;4984764;28;20400;-80
2023/02/24 10:39:50;;;;;;;16.60;3.42;;;;;;;4.76;81.19;100573.34;4980064;28;20181;-80
2023/02/24 10:42:25;;;;;;;16.15;3.20;;;;;;;4.57;81.37;100572.25;4966561;28;20049;-80
2023/02/24 10:45:10;;;;;;;20.27;3.38;;;;;;;4.57;82.47;100567.09;4961060;28;20037;-82
2023/02/24 10:47:43;;;;;;;18.38;3.08;;;;;;;4.71;82.87;100563.47;4974793;28;20125;-82
2023/02/24 10:50:26;;;;;;;22.60;3.40;;;;;;;4.69;82.62;100565.34;4978015;28;20034;-81
2023/02/24 10:58:26;;;;;;;16.80;3.40;;;;;;;4.68;83.67;100558.56;4986229;28;20038;-82
2023/02/24 11:01:11;;;;;;;17.60;3.92;;;;;;;4.85;83.06;100547.72;4971141;28;20038;-81
2023/02/24 11:03:42;;;;;;;19.23;4.55;;;;;;;4.88;83.08;100546.66;4971352;28;20592;-82
2023/02/24 11:17:20;;;;;;;11.93;2.42;;;;;;;4.59;87.55;100528.47;4962586;28;20501;-79
2023/02/24 11:19:49;;;;;;;24.17;4.35;;;;;;;4.66;87.63;100516.75;4956912;28;20046;-81
2023/02/24 11:22:19;;;;;;;21.65;3.42;;;;;;;4.63;87.76;100522.13;4968131;28;20035;-81
2023/02/24 11:24:45;;;;;;;17.65;3.97;;;;;;;4.46;88.91;100519.19;4988907;28;20041;-80
2023/02/24 11:27:11;;;;;;;15.70;3.30;;;;;;;4.48;89.51;100519.88;4973810;28;20035;-81
2023/02/24 11:29:43;;;;;;;21.08;4.95;;;;;;;4.53;87.76;100514.38;4961827;28;20065;-81
2023/02/24 11:32:12;;;;;;;;;;;;;;;4.50;88.87;100512.03;4974972;28;20051;-80
2023/02/24 11:34:48;;;;;;;17.45;3.95;;;;;;;4.50;89.77;100501.75;4988626;28;19918;-81
2023/02/24 11:37:58;;;;;;;22.60;4.30;;;;;;;4.46;89.59;100488.38;4990712;28;20038;-78
2023/02/24 11:40:28;;;;;;;15.88;3.03;;;;;;;4.49;90.94;100488.13;4969334;28;20043;-82
2023/02/24 11:43:09;;;;;;;15.10;3.13;;;;;;;4.37;90.59;100484.00;4953939;28;20051;-79
2023/02/24 11:45:56;;;;;;;18.02;3.80;;;;;;;4.38;91.80;100475.34;4972351;28;20038;-80
2023/02/24 11:48:30;;;;;;;18.70;3.15;;;;;;;4.41;91.89;100471.72;4989245;28;20050;-80
2023/02/24 11:51:09;;;;;;;23.58;4.43;;;;;;;4.43;92.37;100468.09;4972137;28;20043;-81
2023/02/24 11:53:49;;;;;;;18.35;3.28;;;;;;;4.35;93.09;100462.75;4958978;28;20034;-80
2023/02/24 11:56:44;;;;;;;21.63;3.60;;;;;;;4.32;92.06;100460.44;4985710;28;20540;-80
2023/02/24 11:59:32;;;;;;;15.55;3.55;;;;;;;4.20;92.85;100456.28;4924446;28;20047;-80
2023/02/24 12:02:32;;;;;;;16.55;3.50;;;;;;;4.36;93.10;100450.72;4970566;28;20046;-80
2023/02/24 12:05:21;;;;;;;19.20;3.50;;;;;;;4.42;94.15;100445.09;4972040;28;20094;-80
2023/02/24 12:07:49;;;;;;;18.25;4.22;;;;;;;4.41;94.61;100441.72;4975632;28;20134;-81
2023/02/24 12:10:17;;;;;;;25.58;4.65;;;;;;;4.35;94.42;100439.66;4971027;28;20039;-81
2023/02/24 12:13:07;;;;;;;18.80;4.55;;;;;;;4.31;94.84;100427.19;4958927;28;20030;-80
2023/02/24 12:15:45;;;;;;;21.20;4.45;;;;;;;4.33;95.16;100433.81;4972474;28;20054;-81
2023/02/24 12:18:28;;;;;;;24.65;5.32;;;;;;;4.25;96.72;100421.59;4980725;28;20035;-80
2023/02/24 12:20:59;;;;;;;21.45;5.22;;;;;;;4.19;97.77;100422.09;4971654;28;20413;-78